Time;durP1;ratioP1;P1;durP2;ratioP2;P2;SDS_P1;SDS_P2;PMS_P1;PMS_P2;Temp;Humidity;BMP_temperature;BMP_pressure;BME280_temperature;BME280_humidity;BME280_pressure;Samples;Min_cycle;Max_cycle;Signal;HPM_P1;HPM_P2
2023/05/27 00:00:28;;;;;;;;;28.00;28.00;;;;;16.19;69.60;99456.75;5042856;28;9601;-87
2023/05/27 00:03:17;;;;;;;;;27.40;27.40;;;;;16.10;69.70;99451.84;5076343;28;8847;-86
2023/05/27 00:05:47;;;;;;;;;27.60;27.60;;;;;16.16;69.47;99453.38;5074043;28;8859;-86
2023/05/27 00:08:17;;;;;;;;;27.40;26.40;;;;;16.29;69.89;99446.56;5069773;28;8930;-87
2023/05/27 00:10:47;;;;;;;;;29.80;28.60;;;;;16.30;69.05;99453.56;5072049;28;8903;-87
2023/05/27 00:13:16;;;;;;;;;29.20;28.40;;;;;16.23;69.03;99452.16;5088701;28;8931;-86
2023/05/27 00:15:47;;;;;;;;;28.00;27.40;;;;;;;;5072384;28;8896;-84
2023/05/27 00:18:17;;;;;;;;;28.60;27.80;;;;;16.33;68.71;99441.97;5088384;28;8890;-85
2023/05/27 00:20:47;;;;;;;;;26.80;25.20;;;;;16.10;68.77;99453.66;5069903;28;8854;-86
2023/05/27 00:23:17;;;;;;;;;26.40;26.20;;;;;16.27;68.97;99453.72;5056076;28;8866;-86
2023/05/27 00:25:47;;;;;;;;;25.40;23.00;;;;;16.22;69.32;99445.13;5067220;28;8941;-86
2023/05/27 00:28:18;;;;;;;;;24.60;24.00;;;;;16.27;69.06;99440.47;5053412;28;8908;-86
2023/05/27 00:30:48;;;;;;;;;29.60;26.60;;;;;16.33;68.78;99434.03;5087629;28;8814;-87
2023/05/27 00:33:17;;;;;;;;;24.20;24.00;;;;;16.16;67.93;99437.44;5047075;28;8970;-87
2023/05/27 00:35:48;;;;;;;;;24.00;23.20;;;;;16.29;68.55;99441.25;5013470;28;8874;-86
2023/05/27 00:38:18;;;;;;;;;21.80;21.60;;;;;16.27;68.85;99432.50;5013280;28;8942;-86
2023/05/27 00:40:50;;;;;;;;;24.20;24.00;;;;;16.32;68.52;99443.78;5033752;28;9000;-86
2023/05/27 00:43:19;;;;;;;;;20.60;20.60;;;;;16.38;68.69;99435.53;4996963;28;8857;-84
2023/05/27 00:45:50;;;;;;;;;24.80;23.80;;;;;16.38;68.60;99434.66;5029720;28;8860;-85
2023/05/27 00:48:20;;;;;;;;;21.60;20.40;;;;;16.40;68.37;99432.81;4996178;28;8872;-84
2023/05/27 00:50:50;;;;;;;;;23.80;22.00;;;;;16.41;68.40;99437.16;5013994;28;8860;-85
2023/05/27 00:53:21;;;;;;;;;26.20;23.60;;;;;16.43;68.22;99432.63;4993415;28;8874;-86
2023/05/27 00:55:53;;;;;;;;;27.20;24.40;;;;;16.31;67.53;99430.59;5002992;28;8888;-85
2023/05/27 00:58:23;;;;;;;;;23.00;21.80;;;;;16.37;68.46;99436.44;4994326;28;8862;-85
2023/05/27 01:00:57;;;;;;;;;24.60;23.20;;;;;16.49;68.28;99434.19;4997523;28;9020;-85
2023/05/27 01:03:28;;;;;;;;;25.00;23.60;;;;;16.45;68.31;99427.31;5026823;28;8999;-83
2023/05/27 01:06:04;;;;;;;;;20.40;19.20;;;;;16.46;68.51;99429.03;5042321;28;8877;-84
2023/05/27 01:08:42;;;;;;;;;24.40;23.20;;;;;16.42;68.35;99421.19;5053849;28;8847;-85
2023/05/27 01:11:15;;;;;;;;;19.80;17.40;;;;;16.36;68.49;99417.94;5016834;28;8938;-83
2023/05/27 01:13:51;;;;;;;;;20.00;20.00;;;;;16.39;68.72;99409.84;5011191;28;9435;-85
2023/05/27 01:16:24;;;;;;;;;24.20;21.00;;;;;16.37;68.48;99403.75;5091406;28;8858;-87
2023/05/27 01:18:56;;;;;;;;;23.60;21.60;;;;;16.38;68.36;99416.94;5092939;28;8873;-85
2023/05/27 01:21:27;;;;;;;;;23.80;22.60;;;;;16.29;67.39;99422.69;5107364;28;8875;-86
2023/05/27 01:24:04;;;;;;;;;21.40;19.80;;;;;16.24;68.13;99432.63;5113182;27;8863;-85
2023/05/27 01:26:33;;;;;;;;;22.40;18.60;;;;;16.16;68.28;99435.66;5114893;27;9048;-85
2023/05/27 01:29:03;;;;;;;;;18.40;18.00;;;;;16.09;67.95;99436.00;5114398;27;8885;-85
2023/05/27 01:31:41;;;;;;;;;21.80;19.80;;;;;15.97;68.25;99440.94;5064684;27;8849;-84
2023/05/27 01:34:18;;;;;;;;;21.20;20.80;;;;;15.69;68.55;99441.28;5096473;27;8968;-86
2023/05/27 01:36:55;;;;;;;;;20.40;19.20;;;;;15.92;68.90;99437.63;5111175;27;8852;-84
2023/05/27 01:39:27;;;;;;;;;18.00;17.00;;;;;15.67;68.94;99435.19;5113982;27;8855;-83
2023/05/27 01:41:58;;;;;;;;;20.40;17.60;;;;;15.82;69.16;99433.66;5089828;28;8839;-84
2023/05/27 01:44:28;;;;;;;;;16.80;16.00;;;;;15.91;69.20;99432.41;5040122;28;8866;-86
2023/05/27 01:47:00;;;;;;;;;14.20;11.20;;;;;15.68;68.93;99431.63;5073079;28;8831;-86
2023/05/27 01:49:31;;;;;;;;;16.20;16.20;;;;;15.63;68.95;99428.31;5056337;28;9684;-86
2023/05/27 01:52:00;;;;;;;;;19.40;18.00;;;;;15.62;69.14;99434.53;5059324;28;8860;-86
2023/05/27 01:54:31;;;;;;;;;18.40;18.40;;;;;15.70;68.62;99436.84;5034438;28;8865;-87
2023/05/27 01:57:00;;;;;;;;;19.00;15.80;;;;;15.79;68.94;99432.03;5020864;28;8861;-86
2023/05/27 01:59:29;;;;;;;;;18.60;17.60;;;;;15.87;69.02;99421.06;5012780;28;8875;-86
2023/05/27 02:01:59;;;;;;;;;18.00;16.20;;;;;15.93;68.48;99426.09;5015262;28;8845;-86
2023/05/27 02:04:28;;;;;;;;;23.00;19.80;;;;;15.85;68.29;99430.91;5013078;28;8954;-85
2023/05/27 02:06:57;;;;;;;;;19.60;19.20;;;;;15.92;68.56;99427.00;5013265;28;8844;-86
2023/05/27 02:09:27;;;;;;;;;18.40;17.40;;;;;15.98;68.41;99425.88;5008359;28;9572;-87
2023/05/27 02:11:58;;;;;;;;;20.80;19.60;;;;;16.04;68.63;99428.28;5011178;28;8865;-85
2023/05/27 02:14:28;;;;;;;;;19.80;19.60;;;;;16.07;68.37;99427.25;4948061;28;8841;-86
2023/05/27 02:16:58;;;;;;;;;21.80;19.20;;;;;16.07;68.46;99425.47;5028441;28;8837;-86
2023/05/27 02:19:29;;;;;;;;;21.80;21.80;;;;;16.13;68.22;99434.94;5012337;28;8909;-87
2023/05/27 02:21:58;;;;;;;;;19.00;19.00;;;;;16.08;68.21;99434.25;5018644;28;8813;-87
2023/05/27 02:24:27;;;;;;;;;20.00;18.00;;;;;16.15;68.24;99427.75;5031434;28;8924;-87
2023/05/27 02:26:58;;;;;;;;;20.60;18.40;;;;;16.14;67.87;99431.34;5089939;28;8837;-86
2023/05/27 02:29:27;;;;;;;;;20.60;16.80;;;;;16.13;67.87;99429.63;5048308;28;9023;-86
2023/05/27 02:31:56;;;;;;;;;20.60;20.60;;;;;16.15;67.69;99425.09;5014859;28;8866;-85
2023/05/27 02:34:26;;;;;;;;;20.40;19.40;;;;;16.11;67.64;99437.66;5014968;28;9668;-89
2023/05/27 02:36:55;;;;;;;;;20.60;19.80;;;;;16.04;67.70;99433.56;5034917;28;9011;-87
2023/05/27 02:39:24;;;;;;;;;19.20;19.20;;;;;16.08;68.11;99434.25;5052607;28;8860;-86
2023/05/27 02:41:53;;;;;;;;;21.60;20.00;;;;;16.12;68.14;99433.22;5035608;28;8860;-88
2023/05/27 02:44:24;;;;;;;;;20.20;19.20;;;;;16.14;68.22;99426.06;5036459;28;8946;-89
2023/05/27 02:46:53;;;;;;;;;15.00;15.00;;;;;16.10;67.83;99425.34;5051330;28;8840;-87
2023/05/27 02:49:23;;;;;;;;;17.60;16.60;;;;;16.11;68.05;99420.88;5052350;28;9708;-88
2023/05/27 02:51:52;;;;;;;;;18.80;17.60;;;;;15.93;67.54;99434.06;5024967;28;8844;-88
2023/05/27 02:54:21;;;;;;;;;23.80;20.80;;;;;16.01;68.06;99436.34;5069969;28;9005;-89
2023/05/27 02:56:50;;;;;;;;;17.80;17.80;;;;;15.99;67.62;99428.47;5042961;28;8971;-85
2023/05/27 02:59:19;;;;;;;;;20.40;18.60;;;;;16.00;67.86;99427.56;5035844;28;8989;-87
2023/05/27 03:01:50;;;;;;;;;16.20;15.80;;;;;16.06;68.04;99428.19;5093040;27;8853;-88
2023/05/27 03:04:20;;;;;;;;;18.00;17.00;;;;;16.05;67.65;99427.31;5078143;27;10205;-87
2023/05/27 03:06:49;;;;;;;;;17.60;17.60;;;;;16.05;67.82;99431.78;5056912;27;8867;-86
2023/05/27 03:09:19;;;;;;;;;19.20;18.40;;;;;16.02;67.86;99433.63;5089784;28;8818;-86
2023/05/27 03:11:48;;;;;;;;;19.00;17.40;;;;;16.05;68.01;99437.06;5070105;28;9686;-86
2023/05/27 03:14:17;;;;;;;;;18.00;17.60;;;;;16.00;67.53;99434.63;5087984;28;8833;-86
2023/05/27 03:16:46;;;;;;;;;17.60;16.40;;;;;15.96;68.10;99444.53;5070768;28;8857;-85
2023/05/27 03:19:17;;;;;;;;;19.20;19.00;;;;;16.01;67.93;99454.91;5071711;28;8842;-87
2023/05/27 03:21:46;;;;;;;;;18.60;18.60;;;;;16.03;67.44;99451.25;5052027;28;8844;-88
2023/05/27 03:24:16;;;;;;;;;16.20;16.00;;;;;15.78;67.09;99453.28;5053969;28;8856;-87
2023/05/27 03:26:45;;;;;;;;;15.80;15.80;;;;;15.93;67.34;99446.44;5066654;28;8855;-87
2023/05/27 03:29:15;;;;;;;;;21.20;18.20;;;;;16.00;67.69;99459.38;5064740;28;8874;-86
2023/05/27 03:31:44;;;;;;;;;20.40;19.00;;;;;16.05;67.68;99451.19;5057841;28;8832;-87
2023/05/27 03:34:19;;;;;;;;;16.20;14.20;;;;;16.09;67.84;99451.91;5076930;28;9011;-88
2023/05/27 03:36:49;;;;;;;;;20.60;18.40;;;;;16.11;67.51;99455.34;5090227;28;9563;-86
2023/05/27 03:39:23;;;;;;;;;17.00;14.80;;;;;16.10;67.61;99451.00;5019000;28;8826;-84
2023/05/27 03:41:57;;;;;;;;;23.80;21.00;;;;;16.14;67.49;99457.88;5061433;28;8884;-88
2023/05/27 03:44:26;;;;;;;;;50.25;41.75;;;;;16.16;67.47;99454.22;5068472;28;8892;-85
2023/05/27 03:46:56;;;;;;;;;30.60;28.40;;;;;16.15;67.25;99454.28;5002818;28;8846;-88
2023/05/27 03:49:27;;;;;;;;;29.00;28.00;;;;;16.17;67.12;99457.72;5036444;28;9681;-91
2023/05/27 03:51:59;;;;;;;;;22.40;22.40;;;;;16.19;67.29;99453.19;5049652;28;8874;-89
2023/05/27 03:54:32;;;;;;;;;19.80;19.00;;;;;16.17;67.50;99458.59;5054394;28;8859;-90
2023/05/27 03:57:21;;;;;;;;;15.80;15.40;;;;;16.26;67.22;99462.59;4996844;28;8953;-91
2023/05/27 03:59:51;;;;;;;;;14.60;14.60;;;;;16.33;67.06;99461.41;4977799;28;8901;-88
2023/05/27 04:02:20;;;;;;;;;14.20;13.00;;;;;16.29;67.24;99454.53;4993810;28;9013;-89
2023/05/27 04:04:51;;;;;;;;;14.80;13.20;;;;;16.36;66.87;99450.66;4993362;28;8848;-88
2023/05/27 04:07:26;;;;;;;;;17.00;15.00;;;;;16.36;66.58;99457.72;4991786;28;8857;-89
2023/05/27 04:09:56;;;;;;;;;14.40;14.40;;;;;16.32;66.81;99462.34;4976630;28;8855;-87
2023/05/27 04:12:25;;;;;;;;;19.00;18.40;;;;;16.42;66.98;99457.47;4982671;28;8858;-87
2023/05/27 04:14:56;;;;;;;;;45.60;36.60;;;;;16.41;66.40;99455.72;5004402;28;8829;-87
2023/05/27 04:17:24;;;;;;;;;20.00;18.40;;;;;16.45;66.86;99452.03;5005150;28;8883;-91
2023/05/27 04:19:56;;;;;;;;;19.20;17.40;;;;;16.51;66.78;99446.47;5035259;28;8987;-87
2023/05/27 04:22:26;;;;;;;;;19.40;19.00;;;;;16.43;66.30;99452.06;5069542;28;8979;-87
2023/05/27 04:24:55;;;;;;;;;21.40;18.00;;;;;16.42;66.56;99455.66;5074227;28;8856;-85
2023/05/27 04:27:24;;;;;;;;;18.00;16.60;;;;;16.48;67.04;99440.44;5079618;28;8855;-87
2023/05/27 04:29:54;;;;;;;;;18.80;16.20;;;;;16.50;66.89;99443.88;5076556;28;8840;-88
2023/05/27 04:32:27;;;;;;;;;51.60;39.20;;;;;16.46;66.60;99451.13;5092220;28;8863;-86
2023/05/27 04:34:58;;;;;;;;;25.00;24.40;;;;;16.49;66.49;99453.59;5059409;28;8897;-85
2023/05/27 04:37:28;;;;;;;;;21.80;20.20;;;;;16.51;66.50;99454.41;5090298;28;8862;-85
2023/05/27 04:39:59;;;;;;;;;24.80;22.20;;;;;16.59;67.20;99451.41;5038326;28;8831;-86
2023/05/27 04:42:32;;;;;;;;;20.00;20.00;;;;;16.55;66.48;99452.47;5017941;28;9622;-85
2023/05/27 04:45:03;;;;;;;;;17.80;17.00;;;;;16.67;66.82;99445.72;5002957;28;8856;-83
2023/05/27 04:47:32;;;;;;;;;30.60;28.20;;;;;16.72;66.66;99452.53;4979192;28;8859;-87
2023/05/27 04:50:04;;;;;;;;;27.60;27.60;;;;;16.80;66.29;99452.16;5008468;28;8863;-87
2023/05/27 04:52:37;;;;;;;;;19.60;17.40;;;;;16.83;66.54;99452.00;5004433;28;8893;-87
2023/05/27 04:55:08;;;;;;;;;25.60;24.20;;;;;16.60;66.67;99448.66;4994490;28;8854;-86
2023/05/27 04:57:42;;;;;;;;;26.80;25.60;;;;;16.23;67.36;99450.34;5031045;28;8902;-87
2023/05/27 05:00:22;;;;;;;;;29.60;22.60;;;;;16.40;67.67;99452.22;5093227;28;8860;-87
2023/05/27 05:03:00;;;;;;;;;23.20;20.20;;;;;16.39;66.40;99447.84;5071402;28;8889;-85
2023/05/27 05:05:35;;;;;;;;;15.20;14.20;;;;;16.14;66.70;99442.81;5088443;28;8861;-86
2023/05/27 05:08:05;;;;;;;;;17.20;16.40;;;;;16.45;66.75;99443.22;5069592;28;8926;-81
2023/05/27 05:10:34;;;;;;;;;17.20;17.00;;;;;16.60;67.41;99445.16;5072246;28;8872;-81
2023/05/27 05:13:05;;;;;;;;;12.20;12.20;;;;;16.50;67.40;99438.56;5079554;28;8851;-79
2023/05/27 05:15:34;;;;;;;;;19.80;19.00;;;;;16.45;66.54;99440.56;5089639;28;8859;-81
2023/05/27 05:18:04;;;;;;;;;22.00;20.00;;;;;16.36;66.80;99445.34;5023158;28;8859;-79
2023/05/27 05:20:35;;;;;;;;;20.00;20.00;;;;;16.40;66.77;99444.28;5088745;28;8936;-85
2023/05/27 05:23:06;;;;;;;;;21.20;19.20;;;;;16.69;66.74;99449.16;5071082;28;8865;-82
2023/05/27 05:25:37;;;;;;;;;21.60;20.60;;;;;16.83;67.01;99452.00;5072703;28;8854;-81
2023/05/27 05:28:08;;;;;;;;;20.00;19.00;;;;;16.55;66.50;99447.16;5090649;28;8966;-80
2023/05/27 05:30:40;;;;;;;;;16.40;15.00;;;;;16.88;66.92;99457.94;5091596;28;8832;-82
2023/05/27 05:33:10;;;;;;;;;20.80;20.20;;;;;17.02;65.59;99459.06;5089929;28;8855;-80
2023/05/27 05:35:40;;;;;;;;;18.20;18.20;;;;;16.99;66.29;99457.44;5085265;28;8980;-82
2023/05/27 05:38:22;;;;;;;;;26.20;25.60;;;;;16.94;66.19;99464.75;5070519;28;8872;-82
2023/05/27 05:40:54;;;;;;;;;22.00;22.00;;;;;16.79;65.99;99469.00;5071977;28;9543;-79
2023/05/27 05:43:24;;;;;;;;;25.40;24.20;;;;;16.54;66.42;99470.19;5021870;28;8853;-81
2023/05/27 05:45:53;;;;;;;;;23.80;22.60;;;;;16.84;67.51;99466.16;5084629;28;8858;-78
2023/05/27 05:48:23;;;;;;;;;24.80;23.80;;;;;16.35;66.85;99461.34;5037445;28;8848;-80
2023/05/27 05:50:54;;;;;;;;;28.20;25.40;;;;;16.56;67.54;99468.31;5089887;28;8879;-86
2023/05/27 05:53:23;;;;;;;;;24.40;24.20;;;;;16.91;67.64;99467.56;5060558;28;8842;-80
2023/05/27 05:55:53;;;;;;;;;24.20;22.80;;;;;16.82;67.71;99476.84;5089351;28;8861;-81
2023/05/27 05:58:22;;;;;;;;;27.20;24.60;;;;;16.73;67.83;99470.16;5029217;28;8846;-82
2023/05/27 06:00:52;;;;;;;;;24.60;24.60;;;;;16.91;67.08;99472.88;5084679;28;8830;-84
2023/05/27 06:03:40;;;;;;;;;24.00;22.80;;;;;16.38;67.78;99475.31;5070613;28;8880;-85
2023/05/27 06:06:16;;;;;;;;;23.40;22.00;;;;;16.61;66.85;99476.94;5055960;28;8987;-85
2023/05/27 06:09:06;;;;;;;;;31.40;29.60;;;;;16.19;68.28;99479.72;5066937;28;8847;-82
2023/05/27 06:11:35;;;;;;;;;26.20;25.00;;;;;16.14;69.04;99482.59;5057068;28;8947;-81
2023/05/27 06:14:04;;;;;;;;;30.00;28.60;;;;;16.45;67.88;99488.31;5068737;28;8858;-82
2023/05/27 06:16:35;;;;;;;;;25.80;24.80;;;;;16.23;68.83;99489.28;5035360;28;8834;-85
2023/05/27 06:19:04;;;;;;;;;19.80;19.80;;;;;15.62;70.59;99495.47;5070687;28;8866;-86
2023/05/27 06:21:35;;;;;;;;;28.00;27.60;;;;;15.75;71.91;99495.81;5078580;28;8853;-82
2023/05/27 06:24:22;;;;;;;;;24.00;22.60;;;;;15.35;72.79;99497.47;5061749;28;9648;-81
2023/05/27 06:26:59;;;;;;;;;25.00;24.20;;;;;15.58;71.69;99502.66;5013428;28;8947;-83
2023/05/27 06:29:27;;;;;;;;;26.60;25.80;;;;;15.91;71.23;99499.53;5069615;28;8865;-82
2023/05/27 06:31:56;;;;;;;;;24.40;23.40;;;;;16.08;69.38;99501.44;5051929;28;9005;-81
2023/05/27 06:34:26;;;;;;;;;25.80;22.20;;;;;16.58;69.58;99500.09;5045469;28;8881;-81
2023/05/27 06:36:56;;;;;;;;;23.40;22.00;;;;;16.60;68.54;99500.88;5059935;28;8855;-80
2023/05/27 06:39:25;;;;;;;;;30.80;29.00;;;;;16.65;69.21;99503.34;5075809;28;8866;-79
2023/05/27 06:41:54;;;;;;;;;22.00;20.80;;;;;16.69;69.09;99502.25;5069099;28;8861;-83
2023/05/27 06:45:01;;;;;;;;;25.80;25.60;;;;;16.88;67.09;99486.31;5044776;28;9054;-85
2023/05/27 06:47:32;;;;;;;;;22.00;21.40;;;;;17.04;67.16;99492.59;5029191;28;8861;-81
2023/05/27 06:50:01;;;;;;;;;26.00;26.00;;;;;17.07;66.38;99496.91;5022305;28;9681;-81
2023/05/27 06:52:32;;;;;;;;;23.60;22.60;;;;;17.23;66.42;99499.66;4995739;28;8868;-82
2023/05/27 06:55:19;;;;;;;;;23.00;22.00;;;;;17.16;66.35;99507.06;5009018;28;8853;-79
2023/05/27 06:58:13;;;;;;;;;22.80;22.20;;;;;17.27;67.25;99506.56;4993917;28;8855;-82
2023/05/27 07:00:53;;;;;;;;;26.60;25.00;;;;;16.85;67.33;99511.19;4996265;28;8906;-84
2023/05/27 07:03:42;;;;;;;;;26.80;26.00;;;;;16.61;68.33;99497.31;4984407;28;8930;-79
2023/05/27 07:06:16;;;;;;;;;25.40;25.40;;;;;16.75;67.57;99505.47;5025327;28;9605;-81
2023/05/27 07:08:50;;;;;;;;;26.60;25.40;;;;;16.69;67.43;99518.19;5020542;28;8935;-84
2023/05/27 07:11:23;;;;;;;;;29.20;26.60;;;;;16.47;68.94;99513.84;5002138;28;8855;-81
2023/05/27 07:13:55;;;;;;;;;27.40;25.20;;;;;16.16;69.90;99520.50;4978957;28;8855;-83
2023/05/27 07:16:28;;;;;;;;;34.20;32.20;;;;;16.19;69.90;99515.09;5039529;28;8835;-81
2023/05/27 07:18:57;;;;;;;;;22.00;22.00;;;;;16.69;68.85;99505.75;5068036;28;8850;-82
2023/05/27 07:21:29;;;;;;;;;25.40;25.20;;;;;16.96;67.78;99505.38;5067618;28;8875;-82
2023/05/27 07:24:03;;;;;;;;;29.40;29.20;;;;;16.46;68.86;99509.50;5104486;28;8878;-83
2023/05/27 07:26:34;;;;;;;;;27.00;25.60;;;;;16.71;69.54;99506.53;5090149;28;8843;-84
2023/05/27 07:29:04;;;;;;;;;29.60;28.60;;;;;16.60;68.55;99500.88;5072813;28;8905;-80
2023/05/27 07:31:50;;;;;;;;;28.00;26.00;;;;;17.22;68.27;99506.75;5079017;28;8932;-85
2023/05/27 07:34:21;;;;;;;;;28.40;27.40;;;;;17.41;68.37;99498.78;5073221;28;8990;-82
2023/05/27 07:36:50;;;;;;;;;27.80;27.80;;;;;17.70;65.61;99504.41;5088800;28;8880;-84
2023/05/27 07:39:22;;;;;;;;;30.00;28.60;;;;;17.12;67.37;99508.16;5071707;28;8824;-83
2023/05/27 07:41:51;;;;;;;;;29.20;27.40;;;;;17.41;66.40;99501.44;5088584;28;8994;-82
2023/05/27 07:44:20;;;;;;;;;27.40;26.40;;;;;17.17;67.27;99493.72;5071449;28;8863;-81
2023/05/27 07:46:49;;;;;;;;;31.60;29.60;;;;;16.59;68.83;99507.97;5088198;28;8932;-85
2023/05/27 07:49:19;;;;;;;;;32.40;30.20;;;;;16.32;70.08;99504.78;5070232;28;8840;-83
2023/05/27 07:51:59;;;;;;;;;30.40;29.00;;;;;17.04;69.66;99497.03;5069343;28;8877;-85
2023/05/27 07:54:31;;;;;;;;;32.80;29.60;;;;;17.17;67.85;99504.34;5087939;28;8829;-84
2023/05/27 07:57:06;;;;;;;;;32.80;31.00;;;;;17.53;67.17;99508.81;5104859;28;8944;-82
2023/05/27 07:59:35;;;;;;;;;30.20;28.80;;;;;17.83;64.44;99508.16;5070878;28;8963;-83
2023/05/27 08:02:06;;;;;;;;;33.00;30.40;;;;;17.72;65.78;99507.84;5087814;28;8868;-82
2023/05/27 08:04:36;;;;;;;;;33.00;30.40;;;;;17.59;64.49;99510.28;5071528;28;8855;-83
2023/05/27 08:07:28;;;;;;;;;33.80;30.60;;;;;17.49;65.23;99509.00;5089835;28;8912;-84
2023/05/27 08:10:14;;;;;;;;;28.40;28.40;;;;;17.86;65.34;99500.03;5089520;28;8914;-83
2023/05/27 08:12:50;;;;;;;;;34.60;32.40;;;;;17.90;64.03;99504.25;5077370;28;8856;-82
2023/05/27 08:15:44;;;;;;;;;30.00;28.80;;;;;16.71;67.91;99518.97;5072814;28;8909;-82
2023/05/27 08:18:24;;;;;;;;;38.40;34.40;;;;;16.72;68.81;99512.69;5088321;28;8869;-84
2023/05/27 08:21:06;;;;;;;;;32.60;31.20;;;;;16.76;68.14;99519.63;5071041;28;8861;-82
2023/05/27 08:23:53;;;;;;;;;36.00;32.40;;;;;17.17;67.26;99514.97;5072069;28;8899;-84
2023/05/27 08:26:47;;;;;;;;;36.80;33.80;;;;;17.24;66.74;99512.00;5059192;28;8863;-83
2023/05/27 08:29:20;;;;;;;;;36.60;31.80;;;;;17.94;64.84;99511.13;5056908;28;9041;-85
2023/05/27 08:32:01;;;;;;;;;31.20;29.80;;;;;18.09;62.50;99519.28;5036957;28;8862;-84
2023/05/27 08:34:30;;;;;;;;;31.40;30.60;;;;;17.70;63.46;99509.72;5032861;28;8876;-83
2023/05/27 08:37:01;;;;;;;;;31.20;30.00;;;;;17.87;61.39;99509.75;5059946;28;8855;-84
2023/05/27 08:39:33;;;;;;;;;37.20;32.80;;;;;18.02;62.88;99507.19;5041462;28;8871;-84
2023/05/27 08:42:10;;;;;;;;;34.20;32.40;;;;;18.29;61.86;99499.56;5033513;28;8839;-84
2023/05/27 08:44:40;;;;;;;;;25.20;25.20;;;;;17.27;64.32;99510.09;5016518;28;8949;-83
2023/05/27 08:47:10;;;;;;;;;33.20;31.60;;;;;17.09;65.27;99508.31;5035671;28;8874;-84
2023/05/27 08:49:39;;;;;;;;;36.80;33.60;;;;;17.26;65.94;99513.69;5029833;28;8935;-83
2023/05/27 08:52:13;;;;;;;;;37.40;33.20;;;;;17.52;64.56;99506.22;5020036;28;8875;-86
2023/05/27 08:54:43;;;;;;;;;29.20;29.20;;;;;18.10;64.57;99515.66;5035655;28;8867;-86
2023/05/27 08:57:18;;;;;;;;;32.60;30.80;;;;;18.11;63.54;99504.94;5023785;28;9028;-85
2023/05/27 08:59:48;;;;;;;;;31.60;30.80;;;;;18.37;63.64;99507.16;5026404;28;8910;-85
2023/05/27 09:02:20;;;;;;;;;35.60;32.80;;;;;19.01;63.55;99503.63;5033102;28;8878;-88
2023/05/27 09:04:50;;;;;;;;;38.80;34.60;;;;;18.93;59.75;99505.84;4973953;28;10055;-85
2023/05/27 09:07:21;;;;;;;;;34.20;33.00;;;;;19.23;61.05;99503.22;4991595;28;8857;-86
2023/05/27 09:09:58;;;;;;;;;41.20;34.80;;;;;19.05;57.84;99505.16;4991004;28;8876;-85
2023/05/27 09:12:30;;;;;;;;;36.00;32.40;;;;;18.06;61.78;99506.13;4977990;28;8848;-85
2023/05/27 09:14:59;;;;;;;;;30.80;30.80;;;;;17.38;63.92;99506.88;4961975;28;9052;-86
2023/05/27 09:17:32;;;;;;;;;36.40;34.40;;;;;18.05;63.31;99507.94;4945522;28;9062;-85
2023/05/27 09:20:02;;;;;;;;;30.80;29.20;;;;;18.57;61.19;99503.41;4887874;29;8863;-84
2023/05/27 09:22:34;;;;;;;;;35.80;33.00;;;;;18.64;60.14;99507.44;4945502;28;8938;-83
2023/05/27 09:25:05;;;;;;;;;32.40;30.80;;;;;19.03;60.97;99500.88;4975428;28;8972;-88
2023/05/27 09:27:44;;;;;;;;;28.60;27.40;;;;;19.13;58.93;99513.56;4978832;28;8961;-86
2023/05/27 09:30:14;;;;;;;;;34.00;32.40;;;;;18.86;59.40;99513.34;4939898;28;9722;-84
2023/05/27 09:32:45;;;;;;;;;40.20;36.80;;;;;18.44;61.77;99506.75;4958725;28;8854;-83
2023/05/27 09:35:39;;;;;;;;;32.20;30.40;;;;;17.55;62.93;99516.66;4941887;28;8870;-82
2023/05/27 09:38:10;;;;;;;;;37.80;33.00;;;;;17.57;64.19;99510.38;4947729;28;8888;-86
2023/05/27 09:40:41;;;;;;;;;32.60;31.20;;;;;18.55;62.78;99503.47;4925627;28;9471;-84
2023/05/27 09:43:14;;;;;;;;;35.60;31.60;;;;;18.48;60.97;99502.13;5002856;28;8848;-84
2023/05/27 09:45:44;;;;;;;;;35.60;32.40;;;;;18.45;61.36;99500.47;4989720;28;8844;-84
2023/05/27 09:48:20;;;;;;;;;38.40;32.80;;;;;18.46;60.32;99509.31;4997089;28;8884;-80
2023/05/27 09:50:55;;;;;;;;;34.40;32.80;;;;;18.16;60.92;99505.56;5007687;28;8850;-83
2023/05/27 09:53:26;;;;;;;;;33.40;31.80;;;;;18.52;60.83;99503.66;4988368;28;8865;-79
2023/05/27 09:55:55;;;;;;;;;34.20;32.20;;;;;18.21;62.07;99507.13;5057972;28;8859;-81
2023/05/27 09:58:26;;;;;;;;;38.20;34.20;;;;;18.14;62.24;99506.59;5089714;28;8855;-81
2023/05/27 10:00:58;;;;;;;;;38.40;35.20;;;;;18.61;60.84;99507.59;5068177;28;8825;-82
2023/05/27 10:03:28;;;;;;;;;35.80;33.60;;;;;19.15;59.29;99508.16;5071239;28;8916;-82
2023/05/27 10:05:57;;;;;;;;;32.80;32.00;;;;;19.23;58.73;99502.38;5024503;28;8862;-83
2023/05/27 10:08:27;;;;;;;;;32.20;31.00;;;;;19.18;58.79;99509.78;5072850;28;8840;-80
2023/05/27 10:10:56;;;;;;;;;36.40;33.20;;;;;19.23;57.96;99513.03;5090691;28;9632;-82
2023/05/27 10:13:28;;;;;;;;;35.40;34.00;;;;;19.83;56.46;99505.09;5091909;28;8951;-81
2023/05/27 10:15:57;;;;;;;;;30.80;30.20;;;;;20.28;55.68;99510.41;5087016;28;8846;-81
2023/05/27 10:18:29;;;;;;;;;32.80;30.20;;;;;20.66;55.28;99504.47;5097205;28;8884;-80
2023/05/27 10:20:59;;;;;;;;;29.60;28.80;;;;;21.22;54.77;99499.13;5096927;28;8840;-82
2023/05/27 10:23:30;;;;;;;;;34.40;31.20;;;;;20.98;52.63;99501.56;5091313;28;8864;-84
2023/05/27 10:26:08;;;;;;;;;30.60;28.60;;;;;21.51;51.13;99498.97;5092204;28;8860;-83
2023/05/27 10:28:42;;;;;;;;;32.40;31.40;;;;;21.54;50.78;99504.09;5090125;28;8882;-81
2023/05/27 10:31:14;;;;;;;;;33.40;31.40;;;;;20.92;51.46;99502.84;5069824;28;8849;-83
2023/05/27 10:34:06;;;;;;;;;31.80;30.40;;;;;19.76;54.57;99509.06;5028682;28;8897;-83
2023/05/27 10:36:36;;;;;;;;;30.40;29.80;;;;;19.59;55.68;99502.06;5037249;28;8869;-81
2023/05/27 10:39:07;;;;;;;;;30.20;29.00;;;;;19.74;55.38;99496.78;5020444;28;8867;-82
2023/05/27 10:41:43;;;;;;;;;31.80;30.80;;;;;20.01;55.04;99499.56;5002915;28;8879;-81
2023/05/27 10:44:13;;;;;;;;;37.20;33.20;;;;;19.59;55.74;99507.41;5032131;28;8863;-83
2023/05/27 10:46:44;;;;;;;;;43.20;35.60;;;;;20.03;56.58;99495.03;5019506;28;8875;-80
2023/05/27 10:49:24;;;;;;;;;30.40;27.20;;;;;20.21;54.61;99487.69;5013166;28;8886;-84
2023/05/27 10:51:54;;;;;;;;;33.40;30.40;;;;;19.97;54.94;99492.72;5011833;28;8854;-81
2023/05/27 10:54:25;;;;;;;;;30.80;29.40;;;;;20.82;54.71;99488.31;5070744;28;9003;-81
2023/05/27 10:56:59;;;;;;;;;34.00;32.40;;;;;20.08;53.39;99487.56;5090790;28;8943;-81
2023/05/27 10:59:40;;;;;;;;;35.60;33.20;;;;;19.77;54.56;99480.59;5091173;28;9514;-85
2023/05/27 11:02:09;;;;;;;;;35.60;31.40;;;;;19.91;53.90;99488.63;5088786;28;8923;-82
2023/05/27 11:04:39;;;;;;;;;36.00;33.00;;;;;19.66;54.93;99486.56;5090268;28;8839;-80
2023/05/27 11:07:09;;;;;;;;;37.60;33.80;;;;;19.77;54.71;99476.13;5040519;28;8986;-82
2023/05/27 11:09:44;;;;;;;;;35.40;33.20;;;;;20.34;53.90;99475.31;5041870;28;8928;-80
2023/05/27 11:12:17;;;;;;;;;38.60;33.00;;;;;20.18;53.66;99480.75;5092038;28;8812;-81
2023/05/27 11:14:51;;;;;;;;;36.40;33.20;;;;;19.73;54.96;99477.25;5071477;28;8848;-81
2023/05/27 11:17:20;;;;;;;;;37.20;34.40;;;;;19.66;55.00;99467.91;5091341;28;8879;-82
2023/05/27 11:19:50;;;;;;;;;35.80;32.80;;;;;19.61;54.67;99473.53;5111274;28;8991;-82
2023/05/27 11:22:21;;;;;;;;;33.00;30.20;;;;;19.44;55.93;99468.28;5074121;28;8837;-81
2023/05/27 11:25:00;;;;;;;;;38.60;33.00;;;;;20.38;54.73;99451.97;5089975;28;8839;-83
2023/05/27 11:27:35;;;;;;;;;40.80;34.60;;;;;20.41;54.24;99444.63;5069964;28;8859;-84
2023/05/27 11:30:11;;;;;;;;;36.00;33.00;;;;;20.19;53.65;99447.75;5086458;28;8945;-82
2023/05/27 11:32:42;;;;;;;;;38.60;34.80;;;;;19.92;52.57;99445.00;5066900;28;8861;-83
2023/05/27 11:35:16;;;;;;;;;40.60;35.80;;;;;20.37;53.49;99442.22;5073623;28;9776;-83
2023/05/27 11:37:51;;;;;;;;;44.00;36.00;;;;;20.75;52.70;99441.59;5072389;28;8855;-88
2023/05/27 11:40:21;;;;;;;;;42.40;36.60;;;;;21.07;51.86;99420.81;5089744;28;8886;-87
2023/05/27 11:42:52;;;;;;;;;40.20;34.40;;;;;21.44;51.25;99429.00;5051624;28;8885;-85
2023/05/27 11:45:24;;;;;;;;;39.00;34.60;;;;;21.89;48.32;99432.16;5049880;28;8912;-88
2023/05/27 11:47:54;;;;;;;;;33.20;31.80;;;;;22.49;49.27;99433.28;5035234;28;8862;-87
2023/05/27 11:50:24;;;;;;;;;39.00;34.20;;;;;22.31;46.96;99430.09;5041486;28;8850;-86